createdAt,value
2018-10-03T00:00:10.055Z,422
2018-10-03T00:01:17.266Z,422
2018-10-03T00:02:24.219Z,422
2018-10-03T00:03:31.438Z,423
2018-10-03T00:04:38.674Z,423
2018-10-03T00:05:45.889Z,423
2018-10-03T00:06:53.107Z,423
2018-10-03T00:08:00.314Z,422
2018-10-03T00:09:07.529Z,424
2018-10-03T00:10:14.751Z,423
2018-10-03T00:11:21.730Z,423
2018-10-03T00:12:28.676Z,423
2018-10-03T00:13:35.915Z,422
2018-10-03T00:14:43.143Z,422
2018-10-03T00:15:50.361Z,423
2018-10-03T00:16:57.583Z,423
2018-10-03T00:18:04.798Z,423
2018-10-03T00:19:12.015Z,423
2018-10-03T00:20:18.952Z,424
2018-10-03T00:21:26.163Z,424
2018-10-03T00:22:33.382Z,423
2018-10-03T00:23:40.610Z,424
2018-10-03T00:24:47.838Z,423
2018-10-03T00:25:55.066Z,423
2018-10-03T00:27:02.011Z,423
2018-10-03T00:28:08.960Z,423
2018-10-03T00:29:16.398Z,423
2018-10-03T00:30:23.620Z,422
2018-10-03T00:31:31.064Z,422
2018-10-03T00:32:38.276Z,422
2018-10-03T00:33:45.702Z,423
2018-10-03T00:34:52.917Z,424
2018-10-03T00:36:00.171Z,423
2018-10-03T00:37:07.117Z,423
2018-10-03T00:38:14.333Z,423
2018-10-03T00:39:21.547Z,424
2018-10-03T00:40:28.778Z,423
2018-10-03T00:41:35.725Z,424
2018-10-03T00:42:42.957Z,424
2018-10-03T00:43:49.896Z,423
2018-10-03T00:44:57.116Z,423
2018-10-03T00:46:04.334Z,423
2018-10-03T00:47:11.546Z,423
2018-10-03T00:48:18.765Z,424
2018-10-03T00:49:25.982Z,423
2018-10-03T00:50:33.207Z,423
2018-10-03T00:51:40.414Z,423
2018-10-03T00:52:47.620Z,423
2018-10-03T00:53:54.844Z,424
2018-10-03T00:55:02.077Z,424
2018-10-03T00:56:09.328Z,424
2018-10-03T00:57:16.548Z,424
2018-10-03T00:58:23.770Z,423
2018-10-03T00:59:30.990Z,423
2018-10-03T01:00:38.420Z,424
2018-10-03T01:01:45.635Z,424
2018-10-03T01:02:52.860Z,424
2018-10-03T01:04:00.073Z,424
2018-10-03T01:05:07.009Z,424
2018-10-03T01:06:14.230Z,424
2018-10-03T01:07:21.451Z,423
2018-10-03T01:08:28.658Z,423
2018-10-03T01:09:35.888Z,423
2018-10-03T01:10:43.102Z,423
2018-10-03T01:11:50.314Z,423
2018-10-03T01:12:57.272Z,423
2018-10-03T01:14:04.493Z,421
2018-10-03T01:15:11.712Z,421
2018-10-03T01:16:18.936Z,421
2018-10-03T01:17:26.144Z,424
2018-10-03T01:18:33.355Z,423
2018-10-03T01:19:40.572Z,422
2018-10-03T01:20:47.779Z,422
2018-10-03T01:21:54.983Z,422
2018-10-03T01:23:02.212Z,422
2018-10-03T01:24:09.428Z,422
2018-10-03T01:25:16.648Z,424
2018-10-03T01:26:23.319Z,422
2018-10-03T01:27:30.537Z,423
2018-10-03T01:28:37.746Z,422
2018-10-03T01:29:44.960Z,423
2018-10-03T01:30:52.176Z,423
2018-10-03T01:31:59.412Z,423
2018-10-03T01:33:06.622Z,423
2018-10-03T01:34:13.576Z,423
2018-10-03T01:35:20.807Z,423
2018-10-03T01:36:28.062Z,424
2018-10-03T01:37:34.729Z,424
2018-10-03T01:38:42.179Z,423
2018-10-03T01:39:49.402Z,425
2018-10-03T01:40:56.634Z,427
2018-10-03T01:42:03.843Z,426
2018-10-03T01:43:11.059Z,426
2018-10-03T01:44:18.276Z,423
2018-10-03T01:45:25.492Z,426
2018-10-03T01:46:32.718Z,424
2018-10-03T01:47:39.952Z,423
2018-10-03T01:48:47.164Z,422
2018-10-03T01:49:54.120Z,421
2018-10-03T01:51:01.351Z,420
2018-10-03T01:52:08.570Z,421
2018-10-03T01:53:15.788Z,430
2018-10-03T01:54:23.011Z,428
2018-10-03T01:55:30.238Z,431
2018-10-03T01:56:37.461Z,430
2018-10-03T01:57:44.120Z,430
2018-10-03T01:58:51.332Z,432
2018-10-03T01:59:58.547Z,433
2018-10-03T02:01:05.503Z,434
2018-10-03T02:02:12.757Z,434
2018-10-03T02:03:19.985Z,434
2018-10-03T02:04:27.195Z,435
2018-10-03T02:05:34.411Z,434
2018-10-03T02:06:41.645Z,434
2018-10-03T02:07:48.865Z,431
2018-10-03T02:08:56.077Z,428
2018-10-03T02:10:03.319Z,427
2018-10-03T02:11:10.535Z,424
2018-10-03T02:12:17.768Z,424
2018-10-03T02:13:24.975Z,424
2018-10-03T02:14:31.947Z,423
2018-10-03T02:15:38.887Z,423
2018-10-03T02:16:46.059Z,423
2018-10-03T02:17:52.988Z,424
2018-10-03T02:19:00.431Z,424
2018-10-03T02:20:07.645Z,423
2018-10-03T02:21:14.857Z,424
2018-10-03T02:22:22.073Z,425
2018-10-03T02:23:29.297Z,424
2018-10-03T02:24:36.516Z,424
2018-10-03T02:25:43.190Z,424
2018-10-03T02:26:50.404Z,425
2018-10-03T02:27:57.619Z,425
2018-10-03T02:29:04.832Z,424
2018-10-03T02:30:12.079Z,424
2018-10-03T02:31:19.291Z,424
2018-10-03T02:32:26.501Z,424
2018-10-03T02:33:33.711Z,424
2018-10-03T02:34:40.924Z,423
2018-10-03T02:35:48.154Z,423
2018-10-03T02:36:55.390Z,421
2018-10-03T02:38:02.608Z,431
2018-10-03T02:39:09.829Z,430
2018-10-03T02:40:17.049Z,429
2018-10-03T02:41:24.291Z,430
2018-10-03T02:42:31.510Z,430
2018-10-03T02:43:38.727Z,430
2018-10-03T02:44:45.659Z,430
2018-10-03T02:45:52.879Z,430
2018-10-03T02:46:59.835Z,430
2018-10-03T02:48:07.041Z,430
2018-10-03T02:49:13.977Z,431
2018-10-03T02:50:21.204Z,435
2018-10-03T02:51:28.417Z,437
2018-10-03T02:52:35.634Z,437
2018-10-03T02:53:42.853Z,435
2018-10-03T02:54:50.093Z,431
2018-10-03T02:55:57.301Z,429
2018-10-03T02:57:04.514Z,428
2018-10-03T02:58:11.731Z,429
2018-10-03T02:59:18.940Z,429
2018-10-03T03:00:26.163Z,428
2018-10-03T03:01:32.939Z,428
2018-10-03T03:02:40.183Z,427
2018-10-03T03:03:47.131Z,428
2018-10-03T03:04:54.344Z,429
2018-10-03T03:06:01.553Z,427
2018-10-03T03:07:08.498Z,424
2018-10-03T03:08:15.736Z,425
2018-10-03T03:09:22.968Z,427
2018-10-03T03:10:30.174Z,427
2018-10-03T03:11:37.384Z,429
2018-10-03T03:12:44.615Z,429
2018-10-03T03:13:51.827Z,430
2018-10-03T03:14:59.036Z,429
2018-10-03T03:16:06.253Z,429
2018-10-03T03:17:13.481Z,430
2018-10-03T03:18:20.424Z,430
2018-10-03T03:19:27.657Z,431
2018-10-03T03:20:34.872Z,431
2018-10-03T03:21:42.087Z,431
2018-10-03T03:22:49.301Z,432
2018-10-03T03:23:56.520Z,432
2018-10-03T03:25:03.723Z,433
2018-10-03T03:26:10.936Z,432
2018-10-03T03:27:18.173Z,432
2018-10-03T03:28:25.396Z,433
2018-10-03T03:29:32.614Z,433
2018-10-03T03:30:39.830Z,433
2018-10-03T03:31:47.045Z,434
2018-10-03T03:32:54.256Z,429
2018-10-03T03:34:01.472Z,426
2018-10-03T03:35:08.698Z,423
2018-10-03T03:36:15.915Z,424
2018-10-03T03:37:23.137Z,426
2018-10-03T03:38:30.084Z,427
2018-10-03T03:39:37.040Z,428
2018-10-03T03:40:43.718Z,429
2018-10-03T03:41:50.675Z,429
2018-10-03T03:42:57.909Z,429
2018-10-03T03:44:05.149Z,430
2018-10-03T03:45:12.089Z,431
2018-10-03T03:46:19.317Z,430
2018-10-03T03:47:26.538Z,430
2018-10-03T03:48:33.745Z,430
2018-10-03T03:49:40.958Z,428
2018-10-03T03:50:48.179Z,418
2018-10-03T03:51:55.387Z,412
2018-10-03T03:53:02.606Z,399
2018-10-03T03:54:09.832Z,429
2018-10-03T03:55:16.785Z,440
2018-10-03T03:56:24.010Z,439
2018-10-03T03:57:31.240Z,434
2018-10-03T03:58:38.454Z,429
2018-10-03T03:59:45.411Z,432
2018-10-03T04:00:52.622Z,432
2018-10-03T04:01:59.855Z,429
2018-10-03T04:03:07.076Z,427
2018-10-03T04:04:14.321Z,431
2018-10-03T04:05:21.544Z,432
2018-10-03T04:06:28.758Z,436
2018-10-03T04:07:35.969Z,435
2018-10-03T04:08:43.182Z,435
2018-10-03T04:09:50.391Z,437
2018-10-03T04:10:57.633Z,433
2018-10-03T04:12:04.857Z,432
2018-10-03T04:13:12.103Z,436
2018-10-03T04:14:19.314Z,432
2018-10-03T04:15:26.548Z,431
2018-10-03T04:16:33.765Z,434
2018-10-03T04:17:40.979Z,439
2018-10-03T04:18:48.194Z,434
2018-10-03T04:19:55.416Z,431
2018-10-03T04:21:02.626Z,432
2018-10-03T04:22:09.836Z,433
2018-10-03T04:23:17.053Z,439
2018-10-03T04:24:24.276Z,438
2018-10-03T04:25:31.494Z,440
2018-10-03T04:26:38.727Z,447
2018-10-03T04:27:45.950Z,451
2018-10-03T04:28:53.161Z,451
2018-10-03T04:30:00.376Z,448
2018-10-03T04:31:07.601Z,445
2018-10-03T04:32:14.565Z,441
2018-10-03T04:33:21.781Z,441
2018-10-03T04:34:28.725Z,440
2018-10-03T04:35:36.088Z,442
2018-10-03T04:36:43.133Z,441
2018-10-03T04:37:50.077Z,441
2018-10-03T04:38:57.015Z,442
2018-10-03T04:40:04.244Z,443
2018-10-03T04:41:11.457Z,444
2018-10-03T04:42:18.994Z,444
2018-10-03T04:43:26.321Z,444
2018-10-03T04:44:33.533Z,445
2018-10-03T04:45:40.746Z,445
2018-10-03T04:46:47.963Z,446
2018-10-03T04:47:55.190Z,446
2018-10-03T04:49:02.631Z,447
2018-10-03T04:50:09.964Z,447
2018-10-03T04:51:16.912Z,448
2018-10-03T04:52:24.127Z,448
2018-10-03T04:53:31.364Z,447
2018-10-03T04:54:38.587Z,447
2018-10-03T04:55:45.809Z,448
2018-10-03T04:56:52.746Z,449
2018-10-03T04:57:59.982Z,448
2018-10-03T04:59:07.208Z,449
2018-10-03T05:00:14.434Z,449
2018-10-03T05:01:21.658Z,450
2018-10-03T05:02:28.866Z,451
2018-10-03T05:03:35.804Z,450
2018-10-03T05:04:43.025Z,451
2018-10-03T05:05:49.963Z,452
2018-10-03T05:06:56.946Z,451
2018-10-03T05:08:04.221Z,451
2018-10-03T05:09:11.425Z,452
2018-10-03T05:10:18.631Z,452
2018-10-03T05:11:25.616Z,452
2018-10-03T05:12:33.009Z,454
2018-10-03T05:13:40.227Z,453
2018-10-03T05:14:47.442Z,454
2018-10-03T05:15:54.664Z,454
2018-10-03T05:17:01.900Z,455
2018-10-03T05:18:09.125Z,455
2018-10-03T05:19:16.338Z,456
2018-10-03T05:20:23.563Z,455
2018-10-03T05:21:30.778Z,457
2018-10-03T05:22:37.733Z,455
2018-10-03T05:23:44.956Z,456
2018-10-03T05:24:51.881Z,457
2018-10-03T05:25:59.088Z,457
2018-10-03T05:27:06.298Z,457
2018-10-03T05:28:13.527Z,457
2018-10-03T05:29:20.488Z,458
2018-10-03T05:30:27.745Z,458
2018-10-03T05:31:34.966Z,458
2018-10-03T05:32:42.183Z,458
2018-10-03T05:33:49.420Z,458
2018-10-03T05:34:56.361Z,459
2018-10-03T05:36:03.302Z,459
2018-10-03T05:37:10.523Z,459
2018-10-03T05:38:17.756Z,460
2018-10-03T05:39:24.996Z,460
2018-10-03T05:40:31.968Z,461
2018-10-03T05:41:39.174Z,461
2018-10-03T05:42:46.377Z,462
2018-10-03T05:43:53.585Z,461
2018-10-03T05:45:00.805Z,462
2018-10-03T05:46:08.028Z,462
2018-10-03T05:47:15.268Z,462
2018-10-03T05:48:22.626Z,462
2018-10-03T05:49:29.642Z,462
2018-10-03T05:50:36.886Z,463
2018-10-03T05:51:44.131Z,463
2018-10-03T05:52:51.350Z,463
2018-10-03T05:53:58.567Z,463
2018-10-03T05:55:05.789Z,463
2018-10-03T05:56:13.009Z,463
2018-10-03T05:57:20.227Z,463
2018-10-03T05:58:27.455Z,464
2018-10-03T05:59:34.678Z,464
2018-10-03T06:00:41.916Z,464
2018-10-03T06:01:49.126Z,464
2018-10-03T06:02:56.699Z,464
2018-10-03T06:04:04.068Z,465
2018-10-03T06:05:11.286Z,464
2018-10-03T06:06:18.511Z,464
2018-10-03T06:07:25.719Z,464
2018-10-03T06:08:32.929Z,464
2018-10-03T06:09:40.183Z,464
2018-10-03T06:10:47.147Z,464
2018-10-03T06:11:54.085Z,464
2018-10-03T06:13:01.087Z,464
2018-10-03T06:14:08.314Z,465
2018-10-03T06:15:15.538Z,464
2018-10-03T06:16:22.787Z,464
2018-10-03T06:17:30.034Z,464
2018-10-03T06:18:37.497Z,465
2018-10-03T06:19:45.141Z,465
2018-10-03T06:20:52.212Z,466
2018-10-03T06:21:58.880Z,466
2018-10-03T06:23:06.097Z,466
2018-10-03T06:24:13.032Z,467
2018-10-03T06:25:19.981Z,467
2018-10-03T06:26:26.372Z,467
2018-10-03T06:27:33.610Z,467
2018-10-03T06:28:40.281Z,467
2018-10-03T06:29:47.520Z,468
2018-10-03T06:30:54.487Z,470
2018-10-03T06:32:01.193Z,469
2018-10-03T06:33:08.420Z,471
2018-10-03T06:34:15.643Z,472
2018-10-03T06:35:22.873Z,471
2018-10-03T06:36:30.089Z,471
2018-10-03T06:37:37.322Z,472
2018-10-03T06:38:44.543Z,473
2018-10-03T06:39:51.491Z,474
2018-10-03T06:40:58.703Z,475
2018-10-03T06:42:05.936Z,475
2018-10-03T06:43:13.150Z,475
2018-10-03T06:44:20.099Z,475
2018-10-03T06:45:27.395Z,477
2018-10-03T06:46:34.708Z,477
2018-10-03T06:47:41.928Z,473
2018-10-03T06:48:49.380Z,472
2018-10-03T06:49:56.598Z,476
2018-10-03T06:51:03.847Z,479
2018-10-03T06:52:11.069Z,480
2018-10-03T06:53:18.286Z,481
2018-10-03T06:54:25.499Z,484
2018-10-03T06:55:32.737Z,483
2018-10-03T06:56:39.964Z,484
2018-10-03T06:57:47.173Z,483
2018-10-03T06:58:54.398Z,483
2018-10-03T07:00:01.679Z,482
2018-10-03T07:01:08.893Z,482
2018-10-03T07:02:16.134Z,481
2018-10-03T07:03:23.357Z,481
2018-10-03T07:04:30.570Z,482
2018-10-03T07:05:37.847Z,482
2018-10-03T07:06:45.069Z,482
2018-10-03T07:07:52.013Z,481
2018-10-03T07:08:59.241Z,481
2018-10-03T07:10:06.175Z,481
2018-10-03T07:11:13.401Z,481
2018-10-03T07:12:20.641Z,482
2018-10-03T07:13:27.584Z,482
2018-10-03T07:14:34.804Z,482
2018-10-03T07:15:42.036Z,482
2018-10-03T07:16:49.259Z,483
2018-10-03T07:17:56.523Z,480
2018-10-03T07:19:03.761Z,478
2018-10-03T07:20:11.211Z,473
2018-10-03T07:21:18.502Z,470
2018-10-03T07:22:25.731Z,467
2018-10-03T07:23:32.954Z,465
2018-10-03T07:24:40.180Z,464
2018-10-03T07:25:47.407Z,464
2018-10-03T07:26:54.641Z,464
2018-10-03T07:28:01.851Z,465
2018-10-03T07:29:08.872Z,465
2018-10-03T07:30:15.553Z,466
2018-10-03T07:31:22.774Z,466
2018-10-03T07:32:29.834Z,465
2018-10-03T07:33:37.076Z,465
2018-10-03T07:34:44.304Z,466
2018-10-03T07:35:51.260Z,466
2018-10-03T07:36:58.484Z,467
2018-10-03T07:38:05.725Z,466
2018-10-03T07:39:12.948Z,467
2018-10-03T07:40:20.201Z,467
2018-10-03T07:41:27.432Z,467
2018-10-03T07:42:34.645Z,467
2018-10-03T07:43:41.860Z,466
2018-10-03T07:44:49.075Z,467
2018-10-03T07:45:56.295Z,466
2018-10-03T07:47:03.532Z,465
2018-10-03T07:48:11.091Z,467
2018-10-03T07:49:18.204Z,465
2018-10-03T07:50:25.437Z,465
2018-10-03T07:51:32.394Z,465
2018-10-03T07:52:39.343Z,465
2018-10-03T07:53:46.565Z,465
2018-10-03T07:54:53.818Z,466
2018-10-03T07:56:01.077Z,465
2018-10-03T07:57:08.329Z,465
2018-10-03T07:58:15.545Z,465
2018-10-03T07:59:22.552Z,466
2018-10-03T08:00:29.800Z,465
2018-10-03T08:01:37.032Z,465
2018-10-03T08:02:44.281Z,465
2018-10-03T08:03:51.222Z,465
2018-10-03T08:04:58.189Z,467
2018-10-03T08:06:05.418Z,465
2018-10-03T08:07:12.724Z,466
2018-10-03T08:08:19.936Z,466
2018-10-03T08:09:26.931Z,467
2018-10-03T08:10:34.165Z,466
2018-10-03T08:11:41.394Z,466
2018-10-03T08:12:48.351Z,466
2018-10-03T08:13:55.303Z,466
2018-10-03T08:15:02.556Z,465
2018-10-03T08:16:09.784Z,465
2018-10-03T08:17:17.195Z,465
2018-10-03T08:18:24.423Z,464
2018-10-03T08:19:31.646Z,466
2018-10-03T08:20:38.872Z,466
2018-10-03T08:21:46.170Z,466
2018-10-03T08:22:53.641Z,466
2018-10-03T08:24:00.903Z,466
2018-10-03T08:25:08.141Z,465
2018-10-03T08:26:15.374Z,465
2018-10-03T08:27:22.618Z,466
2018-10-03T08:28:29.841Z,466
2018-10-03T08:29:37.103Z,465
2018-10-03T08:30:44.378Z,465
2018-10-03T08:31:51.652Z,464
2018-10-03T08:32:59.419Z,465
2018-10-03T08:34:06.472Z,465
2018-10-03T08:35:13.705Z,465
2018-10-03T08:36:20.933Z,464
2018-10-03T08:37:28.157Z,464
2018-10-03T08:38:34.891Z,464
2018-10-03T08:39:42.111Z,465
2018-10-03T08:40:49.362Z,465
2018-10-03T08:41:56.606Z,465
2018-10-03T08:43:03.582Z,465
2018-10-03T08:44:10.822Z,465
2018-10-03T08:45:18.055Z,465
2018-10-03T08:46:25.279Z,464
2018-10-03T08:47:32.504Z,465
2018-10-03T08:48:39.752Z,464
2018-10-03T08:50:59.992Z,464
2018-10-03T08:52:07.219Z,464
2018-10-03T08:53:14.445Z,464
2018-10-03T08:54:21.692Z,464
2018-10-03T08:55:28.635Z,464
2018-10-03T08:56:35.881Z,465
2018-10-03T08:57:43.103Z,464
2018-10-03T08:58:50.342Z,464
2018-10-03T08:59:57.568Z,465
2018-10-03T09:01:04.822Z,465
2018-10-03T09:02:12.064Z,464
2018-10-03T09:03:19.284Z,463
2018-10-03T09:04:26.526Z,463
2018-10-03T09:05:33.481Z,462
2018-10-03T09:06:40.717Z,463
2018-10-03T09:07:47.972Z,463
2018-10-03T09:08:55.206Z,462
2018-10-03T09:10:02.476Z,463
2018-10-03T09:11:09.694Z,463
2018-10-03T09:12:16.947Z,463
2018-10-03T09:13:24.182Z,462
2018-10-03T09:14:31.424Z,462
2018-10-03T09:15:38.661Z,462
2018-10-03T09:16:45.920Z,462
2018-10-03T09:17:53.163Z,463
2018-10-03T09:19:00.146Z,462
2018-10-03T09:20:07.101Z,461
2018-10-03T09:21:14.576Z,461
2018-10-03T09:22:21.819Z,460
2018-10-03T09:23:29.058Z,462
2018-10-03T09:24:36.022Z,463
2018-10-03T09:25:43.267Z,462
2018-10-03T09:26:50.491Z,462
2018-10-03T09:27:57.719Z,461
2018-10-03T09:29:04.683Z,460
2018-10-03T09:30:11.900Z,461
2018-10-03T09:31:19.127Z,461
2018-10-03T09:32:26.383Z,459
2018-10-03T09:33:33.333Z,460
2018-10-03T09:34:40.597Z,459
2018-10-03T09:35:47.559Z,457
2018-10-03T09:36:54.811Z,456
2018-10-03T09:38:02.056Z,457
2018-10-03T09:39:09.301Z,456
2018-10-03T09:40:16.537Z,455
2018-10-03T09:41:23.790Z,456
2018-10-03T09:42:30.733Z,455
2018-10-03T09:43:37.972Z,457
2018-10-03T09:44:45.196Z,457
2018-10-03T09:46:06.791Z,457
2018-10-03T09:47:13.743Z,458
2018-10-03T09:48:20.962Z,459
2018-10-03T09:49:28.213Z,458
2018-10-03T09:50:35.450Z,458
2018-10-03T09:51:42.709Z,457
2018-10-03T09:52:49.687Z,458
2018-10-03T09:53:56.905Z,457
2018-10-03T09:55:04.137Z,456
2018-10-03T09:56:11.364Z,455
2018-10-03T09:57:18.601Z,455
2018-10-03T09:58:25.862Z,455
2018-10-03T09:59:33.087Z,455
2018-10-03T10:00:40.445Z,456
2018-10-03T10:01:47.702Z,456
2018-10-03T10:02:54.952Z,455
2018-10-03T10:04:02.189Z,454
2018-10-03T10:05:09.439Z,456
2018-10-03T10:06:16.669Z,456
2018-10-03T10:07:23.895Z,456
2018-10-03T10:08:31.111Z,455
2018-10-03T10:09:38.083Z,455
2018-10-03T10:10:45.033Z,455
2018-10-03T10:11:52.281Z,455
2018-10-03T10:12:59.240Z,455
2018-10-03T10:14:06.478Z,455
2018-10-03T10:15:13.712Z,455
2018-10-03T10:16:20.979Z,454
2018-10-03T10:17:28.235Z,454
2018-10-03T10:18:35.476Z,454
2018-10-03T10:19:42.706Z,453
2018-10-03T10:20:50.143Z,454
2018-10-03T10:21:57.528Z,454
2018-10-03T10:23:04.472Z,452
2018-10-03T10:24:11.702Z,453
2018-10-03T10:25:18.945Z,452
2018-10-03T10:26:26.173Z,452
2018-10-03T10:27:33.406Z,452
2018-10-03T10:28:40.366Z,452
2018-10-03T10:29:47.608Z,452
2018-10-03T10:30:54.557Z,452
2018-10-03T10:32:01.820Z,452
2018-10-03T10:33:09.480Z,452
2018-10-03T10:34:16.926Z,453
2018-10-03T10:37:43.390Z,455
2018-10-03T10:38:50.761Z,454
2018-10-03T10:39:58.076Z,453
2018-10-03T10:41:05.681Z,454
2018-10-03T10:42:13.139Z,456
2018-10-03T10:43:20.645Z,457
2018-10-03T10:44:27.929Z,456
2018-10-03T10:45:34.898Z,456
2018-10-03T10:46:42.333Z,457
2018-10-03T10:47:49.699Z,458
2018-10-03T10:48:57.181Z,458
2018-10-03T10:50:04.464Z,457
2018-10-03T10:51:11.941Z,457
2018-10-03T10:52:19.183Z,458
2018-10-03T10:53:26.419Z,460
2018-10-03T10:54:33.700Z,461
2018-10-03T10:55:40.940Z,460
2018-10-03T10:56:48.185Z,460
2018-10-03T10:57:55.137Z,460
2018-10-03T10:59:02.384Z,461
2018-10-03T11:00:09.848Z,460
2018-10-03T11:01:17.092Z,462
2018-10-03T11:02:24.567Z,461
2018-10-03T11:03:31.261Z,461
2018-10-03T11:04:38.734Z,460
2018-10-03T11:05:45.991Z,457
2018-10-03T11:06:53.243Z,455
2018-10-03T11:08:00.477Z,453
2018-10-03T11:09:07.934Z,453
2018-10-03T11:10:15.187Z,452
2018-10-03T11:11:22.438Z,449
2018-10-03T11:12:29.402Z,449
2018-10-03T11:13:36.623Z,449
2018-10-03T11:14:43.851Z,450
2018-10-03T11:15:51.096Z,448
2018-10-03T11:16:58.539Z,449
2018-10-03T11:18:06.108Z,449
2018-10-03T11:19:13.363Z,449
2018-10-03T11:20:20.582Z,447
2018-10-03T11:21:27.538Z,447
2018-10-03T11:22:35.002Z,438
2018-10-03T11:23:42.535Z,434
2018-10-03T11:24:51.175Z,429
2018-10-03T11:25:58.807Z,432
2018-10-03T11:27:06.052Z,429
2018-10-03T11:28:13.021Z,440
2018-10-03T11:29:20.278Z,443
2018-10-03T11:30:27.526Z,445
2018-10-03T11:31:34.750Z,432
2018-10-03T11:32:41.721Z,428
2018-10-03T11:33:49.183Z,433
2018-10-03T11:34:56.146Z,430
2018-10-03T11:36:03.606Z,425
2018-10-03T11:37:10.842Z,423
2018-10-03T11:38:18.375Z,429
2018-10-03T11:39:25.453Z,431
2018-10-03T11:40:32.741Z,430
2018-10-03T11:41:39.976Z,423
2018-10-03T11:42:47.425Z,413
2018-10-03T11:43:54.906Z,422
2018-10-03T11:45:02.313Z,432
2018-10-03T11:46:09.263Z,433
2018-10-03T11:47:16.723Z,442
2018-10-03T11:48:23.979Z,444
2018-10-03T11:49:31.446Z,443
2018-10-03T11:50:38.950Z,445
2018-10-03T11:51:46.622Z,446
2018-10-03T11:52:53.863Z,446
2018-10-03T11:54:01.128Z,446
2018-10-03T11:55:08.380Z,440
2018-10-03T11:56:15.355Z,442
2018-10-03T11:57:22.617Z,443
2018-10-03T11:58:29.847Z,444
2018-10-03T11:59:37.527Z,446
2018-10-03T12:00:45.159Z,447
2018-10-03T12:01:52.752Z,448
2018-10-03T12:03:00.640Z,447
2018-10-03T12:04:08.158Z,446
2018-10-03T12:05:15.442Z,434
2018-10-03T12:06:22.730Z,423
2018-10-03T12:07:30.278Z,425
2018-10-03T22:00:06.237Z,509
2018-10-03T22:01:13.412Z,508
2018-10-03T22:02:20.626Z,508
2018-10-03T22:03:27.600Z,509
2018-10-03T22:04:34.842Z,509
2018-10-03T22:05:42.054Z,509
2018-10-03T22:06:49.287Z,509
2018-10-03T22:07:56.521Z,509
2018-10-03T22:09:03.747Z,508
2018-10-03T22:10:10.966Z,509
2018-10-03T22:11:18.220Z,509
2018-10-03T22:12:25.674Z,509
2018-10-03T22:13:32.900Z,510
2018-10-03T22:14:40.130Z,511
2018-10-03T22:15:47.348Z,511
2018-10-03T22:16:54.586Z,512
2018-10-03T22:18:01.819Z,512
2018-10-03T22:19:09.045Z,512
2018-10-03T22:20:16.274Z,512
2018-10-03T22:21:23.496Z,512
2018-10-03T22:22:30.799Z,513
2018-10-03T22:23:38.060Z,513
2018-10-03T22:24:45.281Z,513
2018-10-03T22:27:05.209Z,514
2018-10-03T22:28:12.650Z,515
2018-10-03T22:29:19.866Z,516
2018-10-03T22:30:27.079Z,515
2018-10-03T22:31:34.305Z,515
2018-10-03T22:32:41.556Z,515
2018-10-03T22:33:48.781Z,516
2018-10-03T22:34:55.988Z,516
2018-10-03T22:36:02.923Z,516
2018-10-03T22:37:10.373Z,517
2018-10-03T22:38:17.311Z,516
2018-10-03T22:39:24.757Z,516
2018-10-03T22:40:31.973Z,515
2018-10-03T22:41:39.215Z,516
2018-10-03T22:42:46.446Z,516
2018-10-03T22:43:53.395Z,517
2018-10-03T22:45:00.645Z,517
2018-10-03T22:46:07.869Z,517
2018-10-03T22:47:15.101Z,518
2018-10-03T22:48:22.328Z,519
2018-10-03T22:49:29.559Z,518
2018-10-03T22:50:36.799Z,519
2018-10-03T22:51:44.075Z,518
2018-10-03T22:52:51.514Z,519
2018-10-03T22:53:58.728Z,519
2018-10-03T22:55:06.191Z,520
2018-10-03T22:56:13.457Z,520
2018-10-03T22:57:20.629Z,520
2018-10-03T22:58:27.581Z,520
2018-10-03T22:59:34.812Z,520
2018-10-03T23:00:42.047Z,520
2018-10-03T23:01:49.290Z,519
2018-10-03T23:02:56.525Z,520
2018-10-03T23:04:03.962Z,521
2018-10-03T23:05:11.175Z,521
2018-10-03T23:06:18.790Z,521
2018-10-03T23:07:25.725Z,522
2018-10-03T23:08:32.875Z,522
2018-10-03T23:09:40.102Z,522
2018-10-03T23:10:47.337Z,522
2018-10-03T23:11:54.562Z,522
2018-10-03T23:13:01.781Z,524
2018-10-03T23:14:09.033Z,524
2018-10-03T23:15:16.475Z,523
2018-10-03T23:16:23.690Z,523
2018-10-03T23:17:31.136Z,523
2018-10-03T23:18:38.348Z,523
2018-10-03T23:19:45.503Z,523
2018-10-03T23:20:52.723Z,523
2018-10-03T23:21:59.946Z,524
2018-10-03T23:23:07.152Z,524
2018-10-03T23:24:14.137Z,525
2018-10-03T23:25:21.367Z,525
2018-10-03T23:26:28.605Z,525
2018-10-03T23:27:35.832Z,526
2018-10-03T23:28:43.090Z,526
2018-10-03T23:29:50.319Z,527
2018-10-03T23:30:57.533Z,527
2018-10-03T23:32:04.754Z,527
2018-10-03T23:33:12.208Z,527
2018-10-03T23:34:19.421Z,526
2018-10-03T23:35:26.859Z,527
2018-10-03T23:36:34.071Z,527
2018-10-03T23:37:41.301Z,527
2018-10-03T23:38:47.997Z,527
2018-10-03T23:39:55.217Z,528
2018-10-03T23:41:02.454Z,527
2018-10-03T23:42:10.015Z,527
2018-10-03T23:43:17.231Z,527
2018-10-03T23:44:24.676Z,527
2018-10-03T23:45:31.884Z,527
2018-10-03T23:46:39.308Z,528
2018-10-03T23:47:46.531Z,527
2018-10-03T23:48:53.750Z,528
2018-10-03T23:50:00.983Z,528
2018-10-03T23:51:08.219Z,529
2018-10-03T23:52:15.425Z,528
2018-10-03T23:53:22.664Z,528
2018-10-03T23:54:29.869Z,527
2018-10-03T23:55:37.306Z,528
2018-10-03T23:56:44.517Z,528
2018-10-03T23:57:51.963Z,528
2018-10-03T23:58:59.178Z,528
